Terminal Aerodrome Forecast
Issued by NWS Nashville, TN

Home | Current Version | Previous Version | Text Only | Print | Product List | Glossary On
Versions: 1 2 3 4 5 6 7 8 9 10 11 12 13 14 15 16 17 18 19 20 21 22 23 24 25 26 27 28 29 30 31 32 33 34
612
FTUS44 KOHX 190001 CCA
TAFBNA
TAF COR
KBNA 190001Z 1900/1924 31015G30KT 6SM -SHRA BKN020 OVC035
     FM190200 32015G30KT P6SM OVC025
     FM190600 32010G17KT P6SM BKN060
     FM191300 32010G20KT P6SM SCT050=

USA.gov is the U.S. government's official web portal to all federal, state and local government web resources and services.